sensor_id;sensor_type;location;lat;lon;timestamp;P1;durP1;ratioP1;P2;durP2;ratioP2
12762;SDS011;6445;52.490;13.378;2023-04-01T00:00:49;5.20;;;2.90;;
12762;SDS011;6445;52.490;13.378;2023-04-01T00:03:15;5.10;;;3.30;;
12762;SDS011;6445;52.490;13.378;2023-04-01T00:05:41;4.57;;;2.83;;
12762;SDS011;6445;52.490;13.378;2023-04-01T00:08:06;7.85;;;3.00;;
12762;SDS011;6445;52.490;13.378;2023-04-01T00:10:31;3.20;;;2.80;;
12762;SDS011;6445;52.490;13.378;2023-04-01T00:12:56;4.45;;;2.80;;
12762;SDS011;6445;52.490;13.378;2023-04-01T00:15:22;4.60;;;2.53;;
12762;SDS011;6445;52.490;13.378;2023-04-01T00:17:47;6.35;;;2.75;;
12762;SDS011;6445;52.490;13.378;2023-04-01T00:20:13;4.38;;;2.90;;
12762;SDS011;6445;52.490;13.378;2023-04-01T00:22:39;7.07;;;2.65;;
12762;SDS011;6445;52.490;13.378;2023-04-01T00:25:04;5.40;;;2.75;;
12762;SDS011;6445;52.490;13.378;2023-04-01T00:27:30;3.53;;;2.70;;
12762;SDS011;6445;52.490;13.378;2023-04-01T00:29:55;5.32;;;2.53;;
12762;SDS011;6445;52.490;13.378;2023-04-01T00:32:20;4.25;;;2.60;;
12762;SDS011;6445;52.490;13.378;2023-04-01T00:34:49;7.85;;;2.95;;
12762;SDS011;6445;52.490;13.378;2023-04-01T00:37:16;5.03;;;2.78;;
12762;SDS011;6445;52.490;13.378;2023-04-01T00:39:41;3.97;;;2.58;;
12762;SDS011;6445;52.490;13.378;2023-04-01T00:42:08;4.22;;;2.63;;
12762;SDS011;6445;52.490;13.378;2023-04-01T00:44:36;5.55;;;2.78;;
12762;SDS011;6445;52.490;13.378;2023-04-01T00:47:03;6.30;;;3.17;;
12762;SDS011;6445;52.490;13.378;2023-04-01T00:49:39;6.20;;;3.42;;
12762;SDS011;6445;52.490;13.378;2023-04-01T00:52:07;6.07;;;2.97;;
12762;SDS011;6445;52.490;13.378;2023-04-01T00:54:35;4.50;;;2.83;;
12762;SDS011;6445;52.490;13.378;2023-04-01T00:57:15;5.07;;;2.67;;
12762;SDS011;6445;52.490;13.378;2023-04-01T00:59:46;5.22;;;2.97;;
12762;SDS011;6445;52.490;13.378;2023-04-01T01:02:15;11.80;;;6.00;;
12762;SDS011;6445;52.490;13.378;2023-04-01T01:04:41;5.10;;;3.53;;
12762;SDS011;6445;52.490;13.378;2023-04-01T01:09:50;4.47;;;2.90;;
12762;SDS011;6445;52.490;13.378;2023-04-01T01:12:43;5.63;;;3.03;;
12762;SDS011;6445;52.490;13.378;2023-04-01T01:15:20;7.03;;;2.90;;
12762;SDS011;6445;52.490;13.378;2023-04-01T01:18:02;6.88;;;3.25;;
12762;SDS011;6445;52.490;13.378;2023-04-01T01:20:48;6.63;;;2.90;;
12762;SDS011;6445;52.490;13.378;2023-04-01T01:23:38;4.93;;;3.05;;
12762;SDS011;6445;52.490;13.378;2023-04-01T01:29:28;7.95;;;3.05;;
12762;SDS011;6445;52.490;13.378;2023-04-01T01:32:18;4.93;;;2.90;;
12762;SDS011;6445;52.490;13.378;2023-04-01T01:37:39;6.10;;;2.72;;
12762;SDS011;6445;52.490;13.378;2023-04-01T01:40:07;4.70;;;2.90;;
12762;SDS011;6445;52.490;13.378;2023-04-01T01:42:36;4.10;;;2.78;;
12762;SDS011;6445;52.490;13.378;2023-04-01T01:45:05;6.35;;;3.00;;
12762;SDS011;6445;52.490;13.378;2023-04-01T01:47:33;8.25;;;3.03;;
12762;SDS011;6445;52.490;13.378;2023-04-01T01:50:00;4.72;;;2.60;;
12762;SDS011;6445;52.490;13.378;2023-04-01T01:52:29;5.90;;;2.78;;
12762;SDS011;6445;52.490;13.378;2023-04-01T01:54:55;5.07;;;2.72;;
12762;SDS011;6445;52.490;13.378;2023-04-01T01:57:28;5.05;;;2.70;;
12762;SDS011;6445;52.490;13.378;2023-04-01T01:59:57;5.53;;;3.00;;
12762;SDS011;6445;52.490;13.378;2023-04-01T02:02:27;4.95;;;2.53;;
12762;SDS011;6445;52.490;13.378;2023-04-01T02:04:56;8.40;;;2.88;;
12762;SDS011;6445;52.490;13.378;2023-04-01T02:07:23;5.40;;;2.58;;
12762;SDS011;6445;52.490;13.378;2023-04-01T02:09:52;6.50;;;2.85;;
12762;SDS011;6445;52.490;13.378;2023-04-01T02:12:18;6.28;;;2.60;;
12762;SDS011;6445;52.490;13.378;2023-04-01T02:14:50;4.53;;;2.60;;
12762;SDS011;6445;52.490;13.378;2023-04-01T02:17:22;5.05;;;3.20;;
12762;SDS011;6445;52.490;13.378;2023-04-01T02:19:53;4.47;;;2.92;;
12762;SDS011;6445;52.490;13.378;2023-04-01T02:22:28;4.47;;;2.80;;
12762;SDS011;6445;52.490;13.378;2023-04-01T02:25:01;5.68;;;2.78;;
12762;SDS011;6445;52.490;13.378;2023-04-01T02:27:31;7.13;;;2.75;;
12762;SDS011;6445;52.490;13.378;2023-04-01T02:29:57;5.25;;;2.47;;
12762;SDS011;6445;52.490;13.378;2023-04-01T02:32:23;7.25;;;3.00;;
12762;SDS011;6445;52.490;13.378;2023-04-01T02:34:50;5.60;;;2.92;;
12762;SDS011;6445;52.490;13.378;2023-04-01T02:37:15;3.80;;;2.65;;
12762;SDS011;6445;52.490;13.378;2023-04-01T02:39:41;4.25;;;2.67;;
12762;SDS011;6445;52.490;13.378;2023-04-01T02:42:07;5.20;;;2.55;;
12762;SDS011;6445;52.490;13.378;2023-04-01T02:44:33;5.32;;;2.58;;
12762;SDS011;6445;52.490;13.378;2023-04-01T02:46:58;27.17;;;22.83;;
12762;SDS011;6445;52.490;13.378;2023-04-01T02:49:23;6.30;;;2.97;;
12762;SDS011;6445;52.490;13.378;2023-04-01T02:51:48;4.82;;;3.00;;
12762;SDS011;6445;52.490;13.378;2023-04-01T02:54:14;5.25;;;2.97;;
12762;SDS011;6445;52.490;13.378;2023-04-01T02:56:39;5.47;;;2.45;;
12762;SDS011;6445;52.490;13.378;2023-04-01T02:59:05;5.03;;;2.78;;
12762;SDS011;6445;52.490;13.378;2023-04-01T03:01:30;6.07;;;3.15;;
12762;SDS011;6445;52.490;13.378;2023-04-01T03:03:55;5.18;;;2.65;;
12762;SDS011;6445;52.490;13.378;2023-04-01T03:06:20;7.50;;;3.35;;
12762;SDS011;6445;52.490;13.378;2023-04-01T03:08:46;6.03;;;2.80;;
12762;SDS011;6445;52.490;13.378;2023-04-01T03:11:11;5.00;;;3.03;;
12762;SDS011;6445;52.490;13.378;2023-04-01T03:13:37;7.93;;;3.30;;
12762;SDS011;6445;52.490;13.378;2023-04-01T03:16:02;4.57;;;3.13;;
12762;SDS011;6445;52.490;13.378;2023-04-01T03:18:28;4.45;;;2.75;;
12762;SDS011;6445;52.490;13.378;2023-04-01T03:20:53;5.68;;;2.90;;
12762;SDS011;6445;52.490;13.378;2023-04-01T03:23:18;4.45;;;3.00;;
12762;SDS011;6445;52.490;13.378;2023-04-01T03:25:46;9.07;;;3.42;;
12762;SDS011;6445;52.490;13.378;2023-04-01T03:28:12;5.72;;;3.35;;
12762;SDS011;6445;52.490;13.378;2023-04-01T03:30:38;4.22;;;3.35;;
12762;SDS011;6445;52.490;13.378;2023-04-01T03:33:03;6.07;;;3.10;;
12762;SDS011;6445;52.490;13.378;2023-04-01T03:35:30;5.65;;;3.08;;
12762;SDS011;6445;52.490;13.378;2023-04-01T03:37:55;5.72;;;3.17;;
12762;SDS011;6445;52.490;13.378;2023-04-01T03:40:21;4.38;;;3.20;;
12762;SDS011;6445;52.490;13.378;2023-04-01T03:42:46;6.50;;;3.47;;
12762;SDS011;6445;52.490;13.378;2023-04-01T03:45:12;7.00;;;3.03;;
12762;SDS011;6445;52.490;13.378;2023-04-01T03:47:38;5.80;;;2.90;;
12762;SDS011;6445;52.490;13.378;2023-04-01T03:50:04;8.85;;;3.80;;
12762;SDS011;6445;52.490;13.378;2023-04-01T03:52:30;7.20;;;3.58;;
12762;SDS011;6445;52.490;13.378;2023-04-01T03:54:55;6.72;;;3.45;;
12762;SDS011;6445;52.490;13.378;2023-04-01T03:57:21;6.75;;;3.30;;
12762;SDS011;6445;52.490;13.378;2023-04-01T03:59:46;8.88;;;3.53;;
12762;SDS011;6445;52.490;13.378;2023-04-01T04:02:11;8.27;;;3.63;;
12762;SDS011;6445;52.490;13.378;2023-04-01T04:04:37;6.20;;;3.40;;
12762;SDS011;6445;52.490;13.378;2023-04-01T04:07:02;9.07;;;3.50;;
12762;SDS011;6445;52.490;13.378;2023-04-01T04:09:27;8.25;;;3.10;;
12762;SDS011;6445;52.490;13.378;2023-04-01T04:11:55;6.45;;;3.00;;
12762;SDS011;6445;52.490;13.378;2023-04-01T04:14:20;8.25;;;3.17;;
12762;SDS011;6445;52.490;13.378;2023-04-01T04:16:45;5.68;;;3.35;;
12762;SDS011;6445;52.490;13.378;2023-04-01T04:19:11;7.68;;;3.67;;
12762;SDS011;6445;52.490;13.378;2023-04-01T04:21:36;5.55;;;3.53;;
12762;SDS011;6445;52.490;13.378;2023-04-01T04:24:02;8.40;;;3.40;;
12762;SDS011;6445;52.490;13.378;2023-04-01T04:26:27;6.03;;;3.58;;
12762;SDS011;6445;52.490;13.378;2023-04-01T04:28:53;7.95;;;3.78;;
12762;SDS011;6445;52.490;13.378;2023-04-01T04:31:23;7.15;;;3.85;;
12762;SDS011;6445;52.490;13.378;2023-04-01T04:33:49;8.25;;;4.00;;
12762;SDS011;6445;52.490;13.378;2023-04-01T04:36:16;5.22;;;3.58;;
12762;SDS011;6445;52.490;13.378;2023-04-01T04:38:41;6.45;;;3.75;;
12762;SDS011;6445;52.490;13.378;2023-04-01T04:41:10;7.88;;;3.38;;
12762;SDS011;6445;52.490;13.378;2023-04-01T04:43:37;7.18;;;3.60;;
12762;SDS011;6445;52.490;13.378;2023-04-01T04:46:06;9.90;;;3.95;;
12762;SDS011;6445;52.490;13.378;2023-04-01T04:48:32;6.28;;;3.50;;
12762;SDS011;6445;52.490;13.378;2023-04-01T04:50:58;7.95;;;3.78;;
12762;SDS011;6445;52.490;13.378;2023-04-01T04:53:23;6.72;;;3.70;;
12762;SDS011;6445;52.490;13.378;2023-04-01T04:55:50;6.30;;;3.40;;
12762;SDS011;6445;52.490;13.378;2023-04-01T04:58:15;4.60;;;3.60;;
12762;SDS011;6445;52.490;13.378;2023-04-01T05:00:41;7.07;;;3.55;;
12762;SDS011;6445;52.490;13.378;2023-04-01T05:03:06;5.00;;;3.65;;
12762;SDS011;6445;52.490;13.378;2023-04-01T05:05:32;7.80;;;3.70;;
12762;SDS011;6445;52.490;13.378;2023-04-01T05:07:58;6.20;;;4.03;;
12762;SDS011;6445;52.490;13.378;2023-04-01T05:10:23;7.72;;;4.28;;
12762;SDS011;6445;52.490;13.378;2023-04-01T05:12:48;8.00;;;3.88;;
12762;SDS011;6445;52.490;13.378;2023-04-01T05:15:14;6.82;;;3.97;;
12762;SDS011;6445;52.490;13.378;2023-04-01T05:17:40;8.18;;;4.43;;
12762;SDS011;6445;52.490;13.378;2023-04-01T05:20:05;7.00;;;4.10;;
12762;SDS011;6445;52.490;13.378;2023-04-01T05:22:31;6.15;;;3.90;;
12762;SDS011;6445;52.490;13.378;2023-04-01T05:24:56;9.40;;;4.50;;
12762;SDS011;6445;52.490;13.378;2023-04-01T05:27:22;7.75;;;4.28;;
12762;SDS011;6445;52.490;13.378;2023-04-01T05:29:47;8.10;;;4.20;;
12762;SDS011;6445;52.490;13.378;2023-04-01T05:32:12;8.27;;;4.18;;
12762;SDS011;6445;52.490;13.378;2023-04-01T05:34:38;6.43;;;3.75;;
12762;SDS011;6445;52.490;13.378;2023-04-01T05:37:03;7.93;;;4.35;;
12762;SDS011;6445;52.490;13.378;2023-04-01T05:39:28;10.68;;;4.60;;
12762;SDS011;6445;52.490;13.378;2023-04-01T05:41:53;6.07;;;3.80;;
12762;SDS011;6445;52.490;13.378;2023-04-01T05:44:19;9.57;;;4.20;;
12762;SDS011;6445;52.490;13.378;2023-04-01T05:46:44;6.20;;;3.75;;
12762;SDS011;6445;52.490;13.378;2023-04-01T05:49:09;6.55;;;3.95;;
12762;SDS011;6445;52.490;13.378;2023-04-01T05:51:35;6.55;;;3.83;;
12762;SDS011;6445;52.490;13.378;2023-04-01T05:54:00;9.60;;;4.55;;
12762;SDS011;6445;52.490;13.378;2023-04-01T05:56:25;8.02;;;3.88;;
12762;SDS011;6445;52.490;13.378;2023-04-01T05:58:51;9.40;;;3.78;;
12762;SDS011;6445;52.490;13.378;2023-04-01T06:01:18;7.25;;;4.10;;
12762;SDS011;6445;52.490;13.378;2023-04-01T06:03:44;6.78;;;4.80;;
12762;SDS011;6445;52.490;13.378;2023-04-01T06:06:11;6.40;;;4.22;;
12762;SDS011;6445;52.490;13.378;2023-04-01T06:08:40;8.07;;;4.75;;
12762;SDS011;6445;52.490;13.378;2023-04-01T06:14:12;7.45;;;4.45;;
12762;SDS011;6445;52.490;13.378;2023-04-01T06:16:57;10.27;;;4.25;;
12762;SDS011;6445;52.490;13.378;2023-04-01T06:19:32;10.27;;;4.65;;
12762;SDS011;6445;52.490;13.378;2023-04-01T06:22:13;11.90;;;4.43;;
12762;SDS011;6445;52.490;13.378;2023-04-01T06:25:07;7.97;;;4.70;;
12762;SDS011;6445;52.490;13.378;2023-04-01T06:30:43;6.35;;;4.13;;
12762;SDS011;6445;52.490;13.378;2023-04-01T06:38:30;9.57;;;5.43;;
12762;SDS011;6445;52.490;13.378;2023-04-01T06:52:26;11.88;;;5.40;;
12762;SDS011;6445;52.490;13.378;2023-04-01T06:55:05;9.43;;;5.25;;
12762;SDS011;6445;52.490;13.378;2023-04-01T06:57:49;12.10;;;6.18;;
12762;SDS011;6445;52.490;13.378;2023-04-01T07:00:25;15.95;;;6.07;;
12762;SDS011;6445;52.490;13.378;2023-04-01T07:02:54;11.82;;;5.50;;
12762;SDS011;6445;52.490;13.378;2023-04-01T07:05:39;10.15;;;5.65;;
12762;SDS011;6445;52.490;13.378;2023-04-01T07:08:06;14.65;;;5.95;;
12762;SDS011;6445;52.490;13.378;2023-04-01T07:10:39;12.63;;;6.28;;
12762;SDS011;6445;52.490;13.378;2023-04-01T07:13:25;14.82;;;5.68;;
12762;SDS011;6445;52.490;13.378;2023-04-01T07:16:08;9.30;;;5.95;;
12762;SDS011;6445;52.490;13.378;2023-04-01T07:18:44;9.88;;;4.90;;
12762;SDS011;6445;52.490;13.378;2023-04-01T07:21:25;11.00;;;5.55;;
12762;SDS011;6445;52.490;13.378;2023-04-01T07:23:54;8.23;;;4.97;;
12762;SDS011;6445;52.490;13.378;2023-04-01T07:26:25;9.65;;;5.10;;
12762;SDS011;6445;52.490;13.378;2023-04-01T07:28:52;7.53;;;4.65;;
12762;SDS011;6445;52.490;13.378;2023-04-01T07:31:35;9.77;;;5.03;;
12762;SDS011;6445;52.490;13.378;2023-04-01T07:34:26;10.30;;;4.63;;
12762;SDS011;6445;52.490;13.378;2023-04-01T07:37:00;8.60;;;4.22;;
12762;SDS011;6445;52.490;13.378;2023-04-01T07:42:27;7.88;;;3.90;;
12762;SDS011;6445;52.490;13.378;2023-04-01T07:48:04;10.32;;;3.60;;
12762;SDS011;6445;52.490;13.378;2023-04-01T07:50:32;4.78;;;3.25;;
12762;SDS011;6445;52.490;13.378;2023-04-01T07:53:09;5.45;;;3.50;;
12762;SDS011;6445;52.490;13.378;2023-04-01T07:58:25;8.75;;;3.42;;
12762;SDS011;6445;52.490;13.378;2023-04-01T08:01:05;6.22;;;2.72;;
12762;SDS011;6445;52.490;13.378;2023-04-01T08:03:45;6.60;;;3.35;;
12762;SDS011;6445;52.490;13.378;2023-04-01T08:06:24;5.00;;;2.90;;
12762;SDS011;6445;52.490;13.378;2023-04-01T08:09:10;5.15;;;3.08;;
12762;SDS011;6445;52.490;13.378;2023-04-01T08:11:52;4.38;;;3.00;;
12762;SDS011;6445;52.490;13.378;2023-04-01T08:17:02;7.95;;;2.67;;
12762;SDS011;6445;52.490;13.378;2023-04-01T08:19:42;4.18;;;2.75;;
12762;SDS011;6445;52.490;13.378;2023-04-01T08:22:33;6.78;;;3.10;;
12762;SDS011;6445;52.490;13.378;2023-04-01T08:25:05;5.10;;;2.42;;
12762;SDS011;6445;52.490;13.378;2023-04-01T08:27:37;11.65;;;7.45;;
12762;SDS011;6445;52.490;13.378;2023-04-01T08:30:19;4.80;;;2.25;;
12762;SDS011;6445;52.490;13.378;2023-04-01T08:38:46;5.90;;;2.63;;
12762;SDS011;6445;52.490;13.378;2023-04-01T08:41:23;2.88;;;2.28;;
12762;SDS011;6445;52.490;13.378;2023-04-01T08:44:04;2.70;;;2.30;;
12762;SDS011;6445;52.490;13.378;2023-04-01T08:46:47;2.13;;;1.80;;
12762;SDS011;6445;52.490;13.378;2023-04-01T08:52:50;7.47;;;5.72;;
12762;SDS011;6445;52.490;13.378;2023-04-01T08:58:14;6.25;;;4.93;;
12762;SDS011;6445;52.490;13.378;2023-04-01T09:01:06;4.70;;;3.55;;
12762;SDS011;6445;52.490;13.378;2023-04-01T09:03:52;4.32;;;3.78;;
12762;SDS011;6445;52.490;13.378;2023-04-01T09:06:35;18.05;;;13.32;;
12762;SDS011;6445;52.490;13.378;2023-04-01T09:20:17;7.03;;;5.75;;
12762;SDS011;6445;52.490;13.378;2023-04-01T09:28:51;8.13;;;6.35;;
12762;SDS011;6445;52.490;13.378;2023-04-01T09:34:35;7.85;;;6.53;;
12762;SDS011;6445;52.490;13.378;2023-04-01T09:37:20;9.32;;;7.20;;
12762;SDS011;6445;52.490;13.378;2023-04-01T09:59:40;14.93;;;9.93;;
12762;SDS011;6445;52.490;13.378;2023-04-01T10:05:51;12.48;;;9.48;;
12762;SDS011;6445;52.490;13.378;2023-04-01T10:08:43;15.02;;;12.07;;
12762;SDS011;6445;52.490;13.378;2023-04-01T10:14:46;13.27;;;11.00;;
12762;SDS011;6445;52.490;13.378;2023-04-01T10:20:10;13.80;;;10.93;;
12762;SDS011;6445;52.490;13.378;2023-04-01T10:28:48;12.98;;;10.77;;
12762;SDS011;6445;52.490;13.378;2023-04-01T10:34:05;13.32;;;10.15;;
12762;SDS011;6445;52.490;13.378;2023-04-01T10:36:52;10.55;;;9.27;;
12762;SDS011;6445;52.490;13.378;2023-04-01T10:42:37;10.73;;;9.10;;
12762;SDS011;6445;52.490;13.378;2023-04-01T10:45:43;10.88;;;9.18;;
12762;SDS011;6445;52.490;13.378;2023-04-01T10:48:45;12.40;;;9.55;;
12762;SDS011;6445;52.490;13.378;2023-04-01T11:11:42;8.93;;;8.02;;
12762;SDS011;6445;52.490;13.378;2023-04-01T11:34:16;7.45;;;5.25;;
12762;SDS011;6445;52.490;13.378;2023-04-01T11:36:48;6.30;;;5.43;;
12762;SDS011;6445;52.490;13.378;2023-04-01T11:44:48;6.78;;;5.88;;
12762;SDS011;6445;52.490;13.378;2023-04-01T11:47:43;4.40;;;4.00;;
12762;SDS011;6445;52.490;13.378;2023-04-01T11:50:21;5.25;;;4.25;;
12762;SDS011;6445;52.490;13.378;2023-04-01T11:56:02;4.07;;;3.67;;
12762;SDS011;6445;52.490;13.378;2023-04-01T12:07:51;7.10;;;4.55;;
12762;SDS011;6445;52.490;13.378;2023-04-01T12:13:22;6.35;;;4.40;;
12762;SDS011;6445;52.490;13.378;2023-04-01T12:18:55;6.47;;;5.40;;
12762;SDS011;6445;52.490;13.378;2023-04-01T12:21:36;6.55;;;5.25;;
12762;SDS011;6445;52.490;13.378;2023-04-01T12:35:44;8.05;;;6.05;;
12762;SDS011;6445;52.490;13.378;2023-04-01T12:44:13;6.47;;;5.80;;
12762;SDS011;6445;52.490;13.378;2023-04-01T12:58:30;8.85;;;7.35;;
12762;SDS011;6445;52.490;13.378;2023-04-01T13:01:28;9.27;;;8.20;;
12762;SDS011;6445;52.490;13.378;2023-04-01T13:04:13;7.78;;;6.97;;
12762;SDS011;6445;52.490;13.378;2023-04-01T13:09:52;10.90;;;7.90;;
12762;SDS011;6445;52.490;13.378;2023-04-01T13:17:48;10.63;;;9.13;;
12762;SDS011;6445;52.490;13.378;2023-04-01T13:28:40;13.38;;;11.38;;
12762;SDS011;6445;52.490;13.378;2023-04-01T13:39:44;12.27;;;10.98;;
12762;SDS011;6445;52.490;13.378;2023-04-01T13:42:35;13.23;;;10.70;;
12762;SDS011;6445;52.490;13.378;2023-04-01T13:45:12;10.50;;;9.13;;
12762;SDS011;6445;52.490;13.378;2023-04-01T13:47:54;11.45;;;10.05;;
12762;SDS011;6445;52.490;13.378;2023-04-01T13:50:24;12.68;;;10.25;;
12762;SDS011;6445;52.490;13.378;2023-04-01T13:53:04;11.30;;;10.10;;
12762;SDS011;6445;52.490;13.378;2023-04-01T13:55:53;13.00;;;11.20;;
12762;SDS011;6445;52.490;13.378;2023-04-01T14:01:23;11.32;;;10.20;;
12762;SDS011;6445;52.490;13.378;2023-04-01T14:07:18;11.65;;;10.43;;
12762;SDS011;6445;52.490;13.378;2023-04-01T14:12:56;12.15;;;9.90;;
12762;SDS011;6445;52.490;13.378;2023-04-01T14:21:30;10.80;;;9.30;;
12762;SDS011;6445;52.490;13.378;2023-04-01T14:27:01;10.93;;;9.70;;
12762;SDS011;6445;52.490;13.378;2023-04-01T14:32:51;10.23;;;8.95;;
12762;SDS011;6445;52.490;13.378;2023-04-01T14:35:30;9.57;;;8.60;;
12762;SDS011;6445;52.490;13.378;2023-04-01T14:38:33;9.88;;;8.75;;
12762;SDS011;6445;52.490;13.378;2023-04-01T14:41:08;10.45;;;9.00;;
12762;SDS011;6445;52.490;13.378;2023-04-01T14:44:01;9.98;;;8.85;;
12762;SDS011;6445;52.490;13.378;2023-04-01T14:49:40;10.25;;;8.80;;
12762;SDS011;6445;52.490;13.378;2023-04-01T14:54:58;9.50;;;8.48;;
12762;SDS011;6445;52.490;13.378;2023-04-01T14:57:30;9.38;;;8.43;;
12762;SDS011;6445;52.490;13.378;2023-04-01T15:00:01;10.20;;;8.80;;
12762;SDS011;6445;52.490;13.378;2023-04-01T15:02:51;9.07;;;8.07;;
12762;SDS011;6445;52.490;13.378;2023-04-01T15:05:32;9.30;;;8.40;;
12762;SDS011;6445;52.490;13.378;2023-04-01T15:08:31;10.23;;;8.70;;
12762;SDS011;6445;52.490;13.378;2023-04-01T15:19:05;10.68;;;8.65;;
12762;SDS011;6445;52.490;13.378;2023-04-01T15:21:49;10.75;;;9.45;;
12762;SDS011;6445;52.490;13.378;2023-04-01T15:24:25;13.18;;;10.15;;
12762;SDS011;6445;52.490;13.378;2023-04-01T15:33:21;10.95;;;9.15;;
12762;SDS011;6445;52.490;13.378;2023-04-01T15:36:20;9.60;;;8.48;;
12762;SDS011;6445;52.490;13.378;2023-04-01T15:38:52;9.88;;;8.40;;
12762;SDS011;6445;52.490;13.378;2023-04-01T15:41:36;12.55;;;9.32;;
12762;SDS011;6445;52.490;13.378;2023-04-01T15:44:36;9.65;;;8.25;;
12762;SDS011;6445;52.490;13.378;2023-04-01T15:47:56;10.63;;;8.93;;
12762;SDS011;6445;52.490;13.378;2023-04-01T15:53:11;8.52;;;7.15;;
12762;SDS011;6445;52.490;13.378;2023-04-01T15:55:59;8.07;;;6.43;;
12762;SDS011;6445;52.490;13.378;2023-04-01T16:03:48;7.15;;;6.35;;
12762;SDS011;6445;52.490;13.378;2023-04-01T16:06:34;7.65;;;6.68;;
12762;SDS011;6445;52.490;13.378;2023-04-01T16:09:13;8.68;;;7.28;;
12762;SDS011;6445;52.490;13.378;2023-04-01T16:12:04;10.73;;;7.60;;
12762;SDS011;6445;52.490;13.378;2023-04-01T16:20:44;10.95;;;8.93;;
12762;SDS011;6445;52.490;13.378;2023-04-01T16:23:13;10.77;;;9.10;;
12762;SDS011;6445;52.490;13.378;2023-04-01T16:28:42;10.73;;;8.55;;
12762;SDS011;6445;52.490;13.378;2023-04-01T16:31:27;8.02;;;7.20;;
12762;SDS011;6445;52.490;13.378;2023-04-01T16:34:04;9.60;;;8.60;;
12762;SDS011;6445;52.490;13.378;2023-04-01T16:36:44;10.75;;;9.57;;
12762;SDS011;6445;52.490;13.378;2023-04-01T16:42:07;10.75;;;8.77;;
12762;SDS011;6445;52.490;13.378;2023-04-01T16:44:48;10.68;;;7.55;;
12762;SDS011;6445;52.490;13.378;2023-04-01T16:47:19;8.80;;;7.70;;
12762;SDS011;6445;52.490;13.378;2023-04-01T16:49:52;15.10;;;12.63;;
12762;SDS011;6445;52.490;13.378;2023-04-01T16:55:34;8.50;;;7.57;;
12762;SDS011;6445;52.490;13.378;2023-04-01T16:58:41;8.13;;;7.32;;
12762;SDS011;6445;52.490;13.378;2023-04-01T17:01:31;8.52;;;7.45;;
12762;SDS011;6445;52.490;13.378;2023-04-01T17:04:12;9.68;;;8.00;;
12762;SDS011;6445;52.490;13.378;2023-04-01T17:06:49;10.95;;;9.02;;
12762;SDS011;6445;52.490;13.378;2023-04-01T17:09:39;10.05;;;7.30;;
12762;SDS011;6445;52.490;13.378;2023-04-01T17:15:05;9.73;;;7.63;;
12762;SDS011;6445;52.490;13.378;2023-04-01T17:17:46;9.57;;;7.30;;
12762;SDS011;6445;52.490;13.378;2023-04-01T17:20:30;8.98;;;7.38;;
12762;SDS011;6445;52.490;13.378;2023-04-01T17:29:18;8.38;;;7.53;;
12762;SDS011;6445;52.490;13.378;2023-04-01T17:32:03;8.55;;;7.65;;
12762;SDS011;6445;52.490;13.378;2023-04-01T17:34:46;9.32;;;8.43;;
12762;SDS011;6445;52.490;13.378;2023-04-01T17:49:37;10.90;;;7.90;;
12762;SDS011;6445;52.490;13.378;2023-04-01T17:54:54;9.32;;;7.65;;
12762;SDS011;6445;52.490;13.378;2023-04-01T17:57:52;10.27;;;9.18;;
12762;SDS011;6445;52.490;13.378;2023-04-01T18:00:26;10.38;;;8.80;;
12762;SDS011;6445;52.490;13.378;2023-04-01T18:09:09;9.77;;;7.72;;
12762;SDS011;6445;52.490;13.378;2023-04-01T18:17:55;10.30;;;8.60;;
12762;SDS011;6445;52.490;13.378;2023-04-01T18:20:34;12.07;;;8.63;;
12762;SDS011;6445;52.490;13.378;2023-04-01T18:23:13;9.13;;;7.88;;
12762;SDS011;6445;52.490;13.378;2023-04-01T18:26:05;8.52;;;7.13;;
12762;SDS011;6445;52.490;13.378;2023-04-01T18:28:40;9.07;;;7.22;;
12762;SDS011;6445;52.490;13.378;2023-04-01T18:31:15;14.45;;;9.05;;
12762;SDS011;6445;52.490;13.378;2023-04-01T18:33:54;8.88;;;6.82;;
12762;SDS011;6445;52.490;13.378;2023-04-01T18:37:01;9.20;;;7.93;;
12762;SDS011;6445;52.490;13.378;2023-04-01T18:39:53;8.90;;;7.63;;
12762;SDS011;6445;52.490;13.378;2023-04-01T18:42:57;9.75;;;6.68;;
12762;SDS011;6445;52.490;13.378;2023-04-01T18:48:12;7.43;;;6.63;;
12762;SDS011;6445;52.490;13.378;2023-04-01T18:50:51;8.13;;;6.35;;
12762;SDS011;6445;52.490;13.378;2023-04-01T18:55:55;7.70;;;6.38;;
12762;SDS011;6445;52.490;13.378;2023-04-01T18:58:35;8.20;;;6.65;;
12762;SDS011;6445;52.490;13.378;2023-04-01T19:01:33;9.63;;;7.00;;
12762;SDS011;6445;52.490;13.378;2023-04-01T19:06:55;10.00;;;7.50;;
12762;SDS011;6445;52.490;13.378;2023-04-01T19:09:24;9.80;;;7.22;;
12762;SDS011;6445;52.490;13.378;2023-04-01T19:14:51;8.65;;;7.38;;
12762;SDS011;6445;52.490;13.378;2023-04-01T19:17:44;11.27;;;7.88;;
12762;SDS011;6445;52.490;13.378;2023-04-01T19:20:21;11.98;;;8.82;;
12762;SDS011;6445;52.490;13.378;2023-04-01T19:23:00;11.52;;;8.80;;
12762;SDS011;6445;52.490;13.378;2023-04-01T19:25:43;12.75;;;9.10;;
12762;SDS011;6445;52.490;13.378;2023-04-01T19:28:24;10.52;;;8.68;;
12762;SDS011;6445;52.490;13.378;2023-04-01T19:30:56;10.73;;;8.55;;
12762;SDS011;6445;52.490;13.378;2023-04-01T19:33:42;11.38;;;8.80;;
12762;SDS011;6445;52.490;13.378;2023-04-01T19:39:33;10.65;;;8.20;;
12762;SDS011;6445;52.490;13.378;2023-04-01T19:48:02;12.82;;;9.38;;
12762;SDS011;6445;52.490;13.378;2023-04-01T19:50:43;11.80;;;8.98;;
12762;SDS011;6445;52.490;13.378;2023-04-01T19:53:31;12.88;;;8.65;;
12762;SDS011;6445;52.490;13.378;2023-04-01T19:56:13;13.75;;;9.43;;
12762;SDS011;6445;52.490;13.378;2023-04-01T19:58:45;14.45;;;9.52;;
12762;SDS011;6445;52.490;13.378;2023-04-01T20:01:24;14.27;;;9.52;;
12762;SDS011;6445;52.490;13.378;2023-04-01T20:04:01;14.00;;;9.52;;
12762;SDS011;6445;52.490;13.378;2023-04-01T20:06:38;15.82;;;9.82;;
12762;SDS011;6445;52.490;13.378;2023-04-01T20:09:40;14.60;;;9.38;;
12762;SDS011;6445;52.490;13.378;2023-04-01T20:12:16;14.48;;;9.90;;
12762;SDS011;6445;52.490;13.378;2023-04-01T20:14:45;14.85;;;9.90;;
12762;SDS011;6445;52.490;13.378;2023-04-01T20:17:21;14.80;;;9.73;;
12762;SDS011;6445;52.490;13.378;2023-04-01T20:22:28;14.82;;;9.82;;
12762;SDS011;6445;52.490;13.378;2023-04-01T20:27:47;18.70;;;10.13;;
12762;SDS011;6445;52.490;13.378;2023-04-01T20:33:03;21.20;;;13.60;;
12762;SDS011;6445;52.490;13.378;2023-04-01T20:36:12;17.88;;;11.60;;
12762;SDS011;6445;52.490;13.378;2023-04-01T20:50:00;16.17;;;11.13;;
12762;SDS011;6445;52.490;13.378;2023-04-01T20:52:53;16.02;;;11.43;;
12762;SDS011;6445;52.490;13.378;2023-04-01T21:12:13;11.52;;;7.95;;
12762;SDS011;6445;52.490;13.378;2023-04-01T21:17:53;11.38;;;7.70;;
12762;SDS011;6445;52.490;13.378;2023-04-01T21:25:53;13.13;;;7.68;;
12762;SDS011;6445;52.490;13.378;2023-04-01T21:28:29;11.82;;;7.80;;
12762;SDS011;6445;52.490;13.378;2023-04-01T21:31:05;12.85;;;7.28;;
12762;SDS011;6445;52.490;13.378;2023-04-01T21:36:40;11.18;;;7.00;;
12762;SDS011;6445;52.490;13.378;2023-04-01T21:39:24;10.27;;;7.30;;
12762;SDS011;6445;52.490;13.378;2023-04-01T21:42:06;12.77;;;6.75;;
12762;SDS011;6445;52.490;13.378;2023-04-01T21:50:40;8.40;;;6.10;;
12762;SDS011;6445;52.490;13.378;2023-04-01T21:56:18;7.45;;;5.85;;
12762;SDS011;6445;52.490;13.378;2023-04-01T22:04:56;9.73;;;6.38;;
12762;SDS011;6445;52.490;13.378;2023-04-01T22:10:09;6.72;;;5.50;;
12762;SDS011;6445;52.490;13.378;2023-04-01T22:12:41;9.35;;;5.80;;
12762;SDS011;6445;52.490;13.378;2023-04-01T22:15:16;7.57;;;5.82;;
12762;SDS011;6445;52.490;13.378;2023-04-01T22:21:08;7.80;;;5.78;;
12762;SDS011;6445;52.490;13.378;2023-04-01T22:23:47;10.95;;;6.32;;
12762;SDS011;6445;52.490;13.378;2023-04-01T22:29:17;7.40;;;6.03;;
12762;SDS011;6445;52.490;13.378;2023-04-01T22:32:08;10.18;;;6.30;;
12762;SDS011;6445;52.490;13.378;2023-04-01T22:34:49;8.98;;;6.22;;